createdAt,value
2018-05-02T00:11:50.964Z,5.67
2018-05-02T00:20:49.961Z,4.17
2018-05-02T00:39:00.652Z,5.30
2018-05-02T00:41:30.957Z,4.37
2018-05-02T00:47:19.696Z,3.70
2018-05-02T00:53:18.613Z,4.10
2018-05-02T00:56:19.456Z,3.23
2018-05-02T00:58:51.202Z,3.17
2018-05-02T01:01:21.463Z,6.03
2018-05-02T01:03:52.513Z,6.30
2018-05-02T01:12:50.036Z,2.37
2018-05-02T01:21:29.331Z,2.53
2018-05-02T01:23:59.683Z,3.23
2018-05-02T01:26:49.623Z,4.03
2018-05-02T01:29:21.047Z,4.53
2018-05-02T01:32:02.338Z,2.80
2018-05-02T01:43:51.068Z,3.60
2018-05-02T01:49:20.479Z,2.87
2018-05-02T01:51:50.836Z,4.27
2018-05-02T01:57:27.103Z,4.13
2018-05-02T02:03:07.395Z,2.77
2018-05-02T02:08:28.909Z,3.30
2018-05-02T02:11:04.687Z,3.67
2018-05-02T02:16:44.479Z,3.67
2018-05-02T02:19:14.572Z,5.63
2018-05-02T02:21:50.719Z,4.37
2018-05-02T02:26:57.991Z,4.97
2018-05-02T02:29:48.779Z,4.57
2018-05-02T02:32:21.299Z,3.97
2018-05-02T02:34:51.383Z,4.17
2018-05-02T02:37:48.486Z,4.47
2018-05-02T02:43:28.230Z,6.63
2018-05-02T02:49:05.712Z,9.80
2018-05-02T02:51:36.811Z,4.67
2018-05-02T02:54:07.130Z,4.13
2018-05-02T02:56:37.700Z,5.00
2018-05-02T03:08:23.783Z,4.70
2018-05-02T03:11:09.950Z,7.80
2018-05-02T03:13:41.455Z,3.93
2018-05-02T03:24:46.706Z,5.53
2018-05-02T03:27:47.807Z,4.47
2018-05-02T03:30:21.398Z,4.13
2018-05-02T03:35:54.775Z,4.40
2018-05-02T03:38:24.645Z,4.27
2018-05-02T03:40:54.746Z,6.57
2018-05-02T03:43:24.796Z,4.90
2018-05-02T03:49:01.344Z,6.30
2018-05-02T03:51:39.428Z,4.50
2018-05-02T03:54:10.594Z,7.47
2018-05-02T03:56:47.190Z,3.70
2018-05-02T03:59:16.777Z,4.40
2018-05-02T04:05:17.553Z,5.47
2018-05-02T04:07:48.905Z,2.93
2018-05-02T04:15:59.016Z,5.97
2018-05-02T04:18:48.392Z,3.07
2018-05-02T04:21:31.152Z,3.00
2018-05-02T04:27:12.144Z,3.80
2018-05-02T04:29:42.249Z,6.03
2018-05-02T04:32:13.217Z,3.47
2018-05-02T04:34:50.653Z,4.60
2018-05-02T04:37:20.748Z,2.30
2018-05-02T04:39:50.856Z,2.70
2018-05-02T04:42:21.967Z,4.90
2018-05-02T04:44:52.039Z,2.30
2018-05-02T04:47:48.221Z,3.67
2018-05-02T04:53:24.486Z,3.00
2018-05-02T04:58:58.264Z,3.30
2018-05-02T05:08:07.551Z,4.90
2018-05-02T05:10:37.652Z,4.13
2018-05-02T05:31:21.734Z,4.63
2018-05-02T05:34:02.525Z,3.07
2018-05-02T05:36:46.357Z,8.40
2018-05-02T05:39:16.778Z,4.33
2018-05-02T05:41:47.822Z,4.07
2018-05-02T05:44:23.156Z,3.20
2018-05-02T05:46:53.547Z,4.70
2018-05-02T05:49:25.713Z,4.53
2018-05-02T05:55:43.743Z,5.90
2018-05-02T05:58:15.611Z,3.47
2018-05-02T06:00:45.727Z,7.93
2018-05-02T06:15:29.505Z,4.37
2018-05-02T06:24:24.871Z,4.13
2018-05-02T06:27:03.550Z,6.23
2018-05-02T06:29:53.799Z,4.10
2018-05-02T06:35:33.139Z,4.93
2018-05-02T06:46:36.966Z,3.77
2018-05-02T06:49:20.115Z,4.77
2018-05-02T06:51:51.345Z,3.67
2018-05-02T06:54:21.411Z,3.03
2018-05-02T06:56:52.594Z,3.77
2018-05-02T06:59:22.688Z,5.90
2018-05-02T07:01:52.849Z,3.27
2018-05-02T07:04:22.937Z,3.37
2018-05-02T07:06:53.041Z,4.73
2018-05-02T07:09:33.315Z,3.53
2018-05-02T07:12:04.839Z,5.03
2018-05-02T07:14:48.486Z,3.37
2018-05-02T07:17:18.815Z,3.23
2018-05-02T07:19:52.625Z,4.33
2018-05-02T07:22:22.905Z,4.23
2018-05-02T07:25:12.167Z,3.40
2018-05-02T07:27:43.612Z,3.07
2018-05-02T07:30:13.718Z,6.20
2018-05-02T07:32:43.918Z,3.73
2018-05-02T07:35:14.103Z,5.70
2018-05-02T07:37:44.335Z,3.20
2018-05-02T07:40:15.644Z,3.83
2018-05-02T07:42:45.761Z,3.73
2018-05-02T07:45:15.931Z,3.43
2018-05-02T07:47:49.359Z,4.03
2018-05-02T07:50:21.020Z,4.53
2018-05-02T07:52:51.105Z,4.07
2018-05-02T07:55:22.189Z,3.77
2018-05-02T07:57:53.100Z,4.23
2018-05-02T08:00:23.243Z,4.30
2018-05-02T08:02:53.377Z,6.47
2018-05-02T08:05:23.496Z,5.53
2018-05-02T08:07:53.865Z,2.73
2018-05-02T08:10:24.002Z,5.53
2018-05-02T08:12:54.093Z,3.20
2018-05-02T08:15:24.386Z,2.60
2018-05-02T08:17:55.267Z,3.00
2018-05-02T08:20:25.369Z,4.67
2018-05-02T08:22:55.548Z,2.30
2018-05-02T08:25:25.906Z,3.53
2018-05-02T08:27:56.240Z,2.57
2018-05-02T08:30:26.342Z,4.57
2018-05-02T08:32:56.371Z,2.50
2018-05-02T08:35:26.616Z,4.10
2018-05-02T08:37:56.719Z,4.40
2018-05-02T08:40:27.568Z,3.23
2018-05-02T08:42:57.937Z,2.50
2018-05-02T08:45:28.011Z,3.67
2018-05-02T08:47:57.772Z,3.37
2018-05-02T08:50:27.878Z,2.50
2018-05-02T08:52:59.199Z,2.53
2018-05-02T08:55:29.322Z,4.33
2018-05-02T08:57:59.598Z,2.33
2018-05-02T09:00:29.372Z,2.83
2018-05-02T09:03:00.590Z,2.63
2018-05-02T09:05:30.851Z,2.43
2018-05-02T09:08:00.952Z,3.20
2018-05-02T09:10:31.842Z,2.43
2018-05-02T09:13:03.189Z,2.70
2018-05-02T09:15:33.549Z,3.67
2018-05-02T09:18:03.855Z,2.30
2018-05-02T09:20:34.057Z,4.17
2018-05-02T09:23:04.145Z,3.03
2018-05-02T09:25:34.225Z,5.83
2018-05-02T09:28:05.102Z,4.40
2018-05-02T09:30:35.335Z,3.27
2018-05-02T09:33:05.626Z,2.53
2018-05-02T09:35:35.796Z,2.30
2018-05-02T09:38:05.766Z,2.97
2018-05-02T09:40:36.302Z,3.03
2018-05-02T09:43:06.281Z,2.70
2018-05-02T09:45:36.580Z,2.23
2018-05-02T09:48:06.725Z,2.43
2018-05-02T09:50:36.879Z,4.27
2018-05-02T09:53:07.321Z,2.10
2018-05-02T09:55:37.432Z,2.03
2018-05-02T09:58:08.810Z,3.70
2018-05-02T10:00:39.035Z,2.17
2018-05-02T10:03:09.297Z,1.80
2018-05-02T10:05:39.049Z,4.07
2018-05-02T10:08:09.180Z,2.47
2018-05-02T10:10:39.532Z,2.73
2018-05-02T10:13:09.648Z,2.90
2018-05-02T10:15:39.815Z,2.87
2018-05-02T10:18:09.929Z,2.93
2018-05-02T10:20:40.796Z,1.63
2018-05-02T10:23:10.956Z,2.10
2018-05-02T10:25:41.242Z,1.07
2018-05-02T10:28:12.740Z,2.20
2018-05-02T10:30:42.821Z,1.87
2018-05-02T10:33:12.074Z,2.10
2018-05-02T10:35:41.815Z,1.27
2018-05-02T10:38:13.001Z,2.03
2018-05-02T10:40:43.658Z,3.57
2018-05-02T10:43:13.863Z,1.00
2018-05-02T10:45:45.049Z,2.15
2018-05-02T10:48:15.414Z,1.53
2018-05-02T10:50:45.783Z,1.63
2018-05-02T10:53:16.099Z,1.62
2018-05-02T10:55:48.332Z,1.87
2018-05-02T10:58:18.516Z,2.93
2018-05-02T11:00:49.195Z,1.98
2018-05-02T11:03:21.051Z,1.77
2018-05-02T11:05:52.193Z,3.40
2018-05-02T11:08:23.683Z,1.42
2018-05-02T11:10:54.524Z,1.62
2018-05-02T11:13:25.192Z,3.67
2018-05-02T11:15:56.505Z,3.33
2018-05-02T11:18:27.209Z,2.33
2018-05-02T11:20:57.838Z,1.40
2018-05-02T11:23:28.535Z,1.30
2018-05-02T11:25:59.200Z,1.67
2018-05-02T11:28:30.806Z,1.60
2018-05-02T11:31:02.320Z,1.60
2018-05-02T11:33:33.005Z,4.20
2018-05-02T11:36:03.432Z,2.37
2018-05-02T11:38:34.141Z,3.90
2018-05-02T11:41:05.040Z,2.25
2018-05-02T11:43:35.947Z,4.07
2018-05-02T11:46:06.609Z,5.72
2018-05-02T11:48:38.118Z,9.10
2018-05-02T11:51:08.766Z,2.87
2018-05-02T11:53:39.715Z,4.75
2018-05-02T11:56:11.139Z,2.03
2018-05-02T11:58:41.801Z,3.20
2018-05-02T12:01:12.431Z,2.87
2018-05-02T12:03:44.260Z,7.18
2018-05-02T12:06:14.894Z,9.02
2018-05-02T12:08:45.613Z,2.03
2018-05-02T12:11:16.649Z,3.17
2018-05-02T12:13:47.161Z,1.90
2018-05-02T12:16:18.586Z,2.50
2018-05-02T12:18:49.518Z,2.45
2018-05-02T12:21:20.943Z,2.87
2018-05-02T12:23:51.865Z,3.33
2018-05-02T12:26:23.155Z,5.03
2018-05-02T12:28:54.587Z,3.33
2018-05-02T12:31:25.458Z,4.53
2018-05-02T12:33:56.173Z,1.87
2018-05-02T12:36:26.822Z,2.33
2018-05-02T12:38:57.491Z,1.77
2018-05-02T12:41:28.906Z,1.62
2018-05-02T12:43:59.568Z,2.50
2018-05-02T12:46:30.214Z,1.90
2018-05-02T12:49:00.884Z,1.92
2018-05-02T12:51:31.545Z,1.73
2018-05-02T12:54:02.417Z,2.08
2018-05-02T12:56:33.055Z,2.85
2018-05-02T12:59:03.384Z,2.55
2018-05-02T13:01:34.806Z,3.25
2018-05-02T13:04:05.764Z,3.78
2018-05-02T13:06:36.580Z,3.37
2018-05-02T13:09:06.223Z,3.60
2018-05-02T13:11:37.809Z,3.97
2018-05-02T13:14:08.745Z,5.43
2018-05-02T13:16:39.532Z,4.55
2018-05-02T13:19:10.216Z,1.95
2018-05-02T13:21:40.876Z,3.17
2018-05-02T13:24:11.523Z,3.00
2018-05-02T13:26:42.403Z,2.40
2018-05-02T13:29:13.304Z,1.50
2018-05-02T13:31:43.776Z,2.25
2018-05-02T13:34:14.840Z,2.35
2018-05-02T13:36:45.529Z,2.03
2018-05-02T13:39:16.211Z,4.03
2018-05-02T13:41:47.658Z,3.22
2018-05-02T13:44:18.613Z,1.80
2018-05-02T13:46:50.386Z,1.95
2018-05-02T13:49:21.822Z,2.20
2018-05-02T13:51:51.969Z,2.92
2018-05-02T13:54:22.284Z,2.33
2018-05-02T13:56:52.383Z,4.23
2018-05-02T13:59:23.050Z,2.08
2018-05-02T14:01:53.978Z,5.23
2018-05-02T14:04:24.843Z,5.60
2018-05-02T14:06:55.749Z,2.30
2018-05-02T14:09:25.874Z,2.60
2018-05-02T14:11:56.501Z,4.30
2018-05-02T14:14:26.622Z,6.33
2018-05-02T14:16:56.745Z,1.90
2018-05-02T14:19:26.997Z,8.83
2018-05-02T14:21:57.478Z,3.30
2018-05-02T14:24:27.920Z,5.53
2018-05-02T14:26:58.069Z,2.13
2018-05-02T14:29:28.185Z,5.17
2018-05-02T14:31:58.267Z,2.53
2018-05-02T14:34:29.731Z,2.37
2018-05-02T14:36:59.656Z,4.47
2018-05-02T14:39:30.319Z,1.60
2018-05-02T14:42:01.312Z,2.27
2018-05-02T14:44:32.072Z,3.17
2018-05-02T14:47:02.761Z,2.83
2018-05-02T14:49:34.909Z,4.30
2018-05-02T14:52:05.086Z,3.43
2018-05-02T14:54:36.656Z,2.00
2018-05-02T14:57:06.982Z,4.23
2018-05-02T14:59:37.113Z,2.57
2018-05-02T15:02:08.487Z,3.07
2018-05-02T15:04:38.684Z,1.97
2018-05-02T15:07:08.817Z,2.40
2018-05-02T15:09:38.907Z,2.60
2018-05-02T15:12:09.747Z,4.07
2018-05-02T15:14:39.885Z,3.03
2018-05-02T15:17:10.313Z,4.73
2018-05-02T15:19:40.472Z,2.20
2018-05-02T15:22:11.339Z,2.50
2018-05-02T15:24:41.523Z,2.93
2018-05-02T15:27:12.514Z,3.90
2018-05-02T15:29:43.460Z,3.03
2018-05-02T15:32:13.655Z,2.97
2018-05-02T15:34:43.840Z,1.80
2018-05-02T15:37:14.220Z,2.40
2018-05-02T15:39:44.337Z,5.60
2018-05-02T15:42:14.413Z,1.67
2018-05-02T15:44:44.951Z,1.87
2018-05-02T15:47:14.769Z,3.13
2018-05-02T15:49:44.988Z,4.03
2018-05-02T15:52:15.366Z,2.40
2018-05-02T15:54:46.181Z,1.70
2018-05-02T15:57:16.416Z,3.17
2018-05-02T15:59:46.907Z,1.90
2018-05-02T16:02:17.854Z,3.00
2018-05-02T16:04:48.744Z,2.07
2018-05-02T16:07:19.052Z,4.53
2018-05-02T16:09:51.236Z,2.20
2018-05-02T16:12:21.009Z,4.47
2018-05-02T16:14:51.146Z,3.27
2018-05-02T16:17:21.402Z,4.53
2018-05-02T16:19:51.674Z,2.77
2018-05-02T16:22:21.867Z,6.93
2018-05-02T16:24:52.266Z,5.07
2018-05-02T16:27:24.121Z,3.83
2018-05-02T16:29:54.415Z,2.47
2018-05-02T16:32:24.754Z,2.77
2018-05-02T16:34:54.926Z,3.43
2018-05-02T16:37:25.040Z,3.87
2018-05-02T16:39:55.284Z,3.90
2018-05-02T16:42:26.223Z,7.43
2018-05-02T16:44:56.423Z,4.73
2018-05-02T16:47:26.772Z,6.03
2018-05-02T16:49:57.187Z,3.77
2018-05-02T16:52:27.358Z,3.33
2018-05-02T16:54:57.589Z,4.70
2018-05-02T16:57:28.468Z,4.77
2018-05-02T16:59:58.668Z,6.20
2018-05-02T17:02:28.982Z,5.63
2018-05-02T17:04:59.283Z,5.20
2018-05-02T17:07:29.590Z,7.43
2018-05-02T17:09:59.710Z,7.17
2018-05-02T17:12:29.801Z,5.80
2018-05-02T17:14:59.923Z,7.17
2018-05-02T17:17:30.027Z,8.47
2018-05-02T17:20:01.049Z,4.40
2018-05-02T17:22:31.192Z,8.13
2018-05-02T17:25:01.522Z,3.53
2018-05-02T17:27:31.793Z,4.37
2018-05-02T17:30:01.889Z,9.50
2018-05-02T17:32:33.395Z,8.00
2018-05-02T17:35:04.047Z,6.77
2018-05-02T17:37:33.846Z,6.70
2018-05-02T17:40:03.615Z,9.17
2018-05-02T17:42:34.576Z,5.03
2018-05-02T17:45:05.259Z,4.50
2018-05-02T17:47:35.382Z,4.63
2018-05-02T17:50:07.265Z,3.50
2018-05-02T17:52:38.178Z,8.13
2018-05-02T17:55:08.425Z,7.23
2018-05-02T17:57:38.805Z,5.10
2018-05-02T18:00:08.915Z,4.67
2018-05-02T18:02:39.030Z,7.13
2018-05-02T18:05:08.682Z,7.57
2018-05-02T18:07:38.910Z,4.27
2018-05-02T18:10:09.151Z,12.27
2018-05-02T18:12:40.053Z,6.43
2018-05-02T18:15:10.189Z,5.57
2018-05-02T18:17:40.324Z,11.90
2018-05-02T18:20:10.460Z,7.47
2018-05-02T18:22:40.560Z,5.67
2018-05-02T18:25:11.767Z,7.03
2018-05-02T18:27:42.557Z,5.13
2018-05-02T18:30:12.751Z,5.27
2018-05-02T18:32:43.714Z,8.50
2018-05-02T18:35:14.535Z,5.40
2018-05-02T18:37:44.697Z,5.27
2018-05-02T18:40:16.687Z,6.50
2018-05-02T18:42:47.007Z,5.13
2018-05-02T18:45:18.004Z,6.83
2018-05-02T18:47:49.071Z,11.07
2018-05-02T18:50:19.490Z,9.77
2018-05-02T18:52:50.481Z,9.10
2018-05-02T18:55:20.653Z,8.33
2018-05-02T18:57:50.823Z,7.07
2018-05-02T19:00:21.009Z,9.33
2018-05-02T19:02:51.989Z,6.33
2018-05-02T19:05:22.330Z,4.80
2018-05-02T19:07:52.769Z,5.20
2018-05-02T19:10:23.016Z,11.13
2018-05-02T19:12:54.942Z,6.47
2018-05-02T19:15:25.203Z,9.73
2018-05-02T19:18:03.075Z,8.23
2018-05-02T19:20:36.022Z,8.33
2018-05-02T19:23:06.964Z,5.43
2018-05-02T19:25:41.997Z,5.53
2018-05-02T19:28:16.175Z,7.43
2018-05-02T19:30:46.064Z,7.10
2018-05-02T19:33:22.054Z,6.43
2018-05-02T19:35:52.061Z,8.70
2018-05-02T19:38:22.537Z,6.63
2018-05-02T19:40:58.335Z,6.20
2018-05-02T19:43:35.177Z,6.20
2018-05-02T19:46:04.746Z,9.00
2018-05-02T19:48:34.872Z,6.33
2018-05-02T19:51:10.723Z,8.37
2018-05-02T19:53:41.937Z,9.90
2018-05-02T19:56:12.039Z,5.67
2018-05-02T19:58:43.282Z,11.30
2018-05-02T20:01:18.182Z,8.80
2018-05-02T20:03:49.252Z,8.70
2018-05-02T20:06:21.278Z,6.40
2018-05-02T20:08:56.975Z,8.00
2018-05-02T20:11:32.467Z,8.30
2018-05-02T20:14:05.347Z,5.70
2018-05-02T20:16:36.181Z,5.37
2018-05-02T20:19:07.397Z,6.70
2018-05-02T20:21:38.499Z,5.00
2018-05-02T20:24:09.225Z,7.10
2018-05-02T20:26:39.707Z,7.77
2018-05-02T20:29:09.939Z,6.07
2018-05-02T20:31:40.392Z,8.77
2018-05-02T20:34:10.823Z,8.33
2018-05-02T20:36:40.588Z,6.47
2018-05-02T20:39:10.701Z,10.30
2018-05-02T20:41:41.244Z,8.27
2018-05-02T20:44:12.241Z,7.70
2018-05-02T20:46:42.619Z,7.00
2018-05-02T20:49:13.002Z,8.93
2018-05-02T20:51:44.681Z,9.50
2018-05-02T20:54:14.772Z,5.30
2018-05-02T20:56:44.840Z,7.20
2018-05-02T20:59:16.422Z,6.87
2018-05-02T21:01:46.555Z,9.00
2018-05-02T21:04:22.215Z,5.13
2018-05-02T21:06:52.274Z,5.73
2018-05-02T21:09:22.145Z,8.40
2018-05-02T21:11:52.534Z,6.87
2018-05-02T21:14:22.648Z,7.30
2018-05-02T21:16:52.766Z,7.10
2018-05-02T21:19:22.885Z,5.60
2018-05-02T21:21:52.994Z,9.67
2018-05-02T21:24:24.179Z,7.53
2018-05-02T21:26:54.264Z,9.57
2018-05-02T21:29:24.623Z,9.07
2018-05-02T21:31:55.824Z,6.13
2018-05-02T21:34:25.340Z,7.60
2018-05-02T21:36:55.459Z,8.37
2018-05-02T21:39:25.548Z,7.33
2018-05-02T21:41:55.798Z,7.37
2018-05-02T21:44:25.907Z,6.60
2018-05-02T21:46:56.193Z,10.10
2018-05-02T21:49:32.789Z,7.03
2018-05-02T21:52:05.203Z,6.53
2018-05-02T21:54:36.167Z,9.40
2018-05-02T21:57:19.770Z,10.90
2018-05-02T21:59:52.860Z,13.03
2018-05-02T22:02:23.108Z,7.70
2018-05-02T22:04:56.592Z,8.03
2018-05-02T22:07:27.296Z,10.93
2018-05-02T22:09:58.321Z,8.90
2018-05-02T22:15:17.528Z,8.83
2018-05-02T22:17:47.622Z,17.53
2018-05-02T22:20:19.350Z,9.57
2018-05-02T22:22:49.524Z,8.73
2018-05-02T22:25:27.350Z,10.83
2018-05-02T22:28:04.112Z,12.07
2018-05-02T22:36:53.510Z,11.67
2018-05-02T22:39:32.255Z,11.80
2018-05-02T22:48:25.475Z,12.00
2018-05-02T22:54:08.115Z,12.67
2018-05-02T22:56:40.387Z,12.37
2018-05-02T22:59:10.988Z,12.90
2018-05-02T23:02:06.717Z,11.13
2018-05-02T23:04:44.020Z,11.20
2018-05-02T23:07:26.811Z,11.37
2018-05-02T23:09:58.486Z,11.23
2018-05-02T23:12:33.044Z,11.97
2018-05-02T23:15:10.387Z,15.87
2018-05-02T23:20:51.815Z,13.87
2018-05-02T23:29:46.334Z,11.27
2018-05-02T23:32:27.625Z,11.67
2018-05-02T23:35:01.479Z,10.57
2018-05-02T23:37:41.317Z,11.87
2018-05-02T23:43:08.955Z,11.83
2018-05-02T23:45:50.239Z,14.60
2018-05-02T23:48:22.772Z,14.43
2018-05-02T23:50:54.091Z,10.73
2018-05-02T23:56:35.127Z,14.83
